Time;durP1;ratioP1;P1;durP2;ratioP2;P2;SDS_P1;SDS_P2;PMS_P1;PMS_P2;Temp;Humidity;BMP_temperature;BMP_pressure;BME280_temperature;BME280_humidity;BME280_pressure;Samples;Min_cycle;Max_cycle;Signal;HPM_P1;HPM_P2
2024/02/19 00:00:06;;;;;;;8.20;1.70;;;8.80;99.90;;;;;;5106673;28;20918;-70
2024/02/19 00:02:36;;;;;;;7.73;1.50;;;8.90;99.90;;;;;;5099771;28;20482;-70
2024/02/19 00:05:06;;;;;;;6.63;0.97;;;8.90;99.90;;;;;;5104941;28;20472;-70
2024/02/19 00:07:35;;;;;;;6.60;1.10;;;9.00;99.90;;;;;;5099674;28;20461;-70
2024/02/19 00:10:03;;;;;;;6.80;1.23;;;9.00;99.90;;;;;;5104088;27;20538;-69
2024/02/19 00:12:31;;;;;;;7.40;1.23;;;9.10;99.90;;;;;;5092733;28;20476;-68
2024/02/19 00:14:59;;;;;;;6.80;1.10;;;9.00;99.90;;;;;;5104773;28;20538;-69
2024/02/19 00:17:27;;;;;;;6.83;1.10;;;9.10;99.90;;;;;;5101750;28;21106;-68
2024/02/19 00:19:55;;;;;;;7.60;1.10;;;9.00;99.90;;;;;;5103957;28;20539;-71
2024/02/19 00:22:25;;;;;;;6.60;1.00;;;9.00;99.90;;;;;;5106302;28;20486;-70
2024/02/19 00:24:53;;;;;;;6.70;1.03;;;9.00;99.90;;;;;;5106601;28;20469;-70
2024/02/19 00:27:21;;;;;;;7.40;1.23;;;9.00;99.90;;;;;;5101763;28;20461;-71
2024/02/19 00:29:49;;;;;;;6.93;1.37;;;9.00;99.90;;;;;;5087158;28;20452;-70
2024/02/19 00:32:17;;;;;;;6.83;1.33;;;9.00;99.90;;;;;;5098680;28;20522;-71
2024/02/19 00:34:45;;;;;;;6.37;0.90;;;9.00;99.90;;;;;;5107858;28;20472;-71
2024/02/19 00:37:13;;;;;;;7.40;0.87;;;9.00;99.90;;;;;;5107748;28;20470;-71
2024/02/19 00:39:42;;;;;;;6.60;0.97;;;8.90;99.90;;;;;;5092204;28;20931;-71
2024/02/19 00:42:10;;;;;;;6.00;0.50;;;9.00;99.90;;;;;;5086724;28;20516;-70
2024/02/19 00:44:38;;;;;;;6.70;0.90;;;9.10;99.90;;;;;;5097936;28;20898;-71
2024/02/19 00:47:06;;;;;;;7.00;1.23;;;9.10;99.90;;;;;;5106823;28;20821;-73
2024/02/19 00:49:34;;;;;;;6.30;0.67;;;9.10;99.90;;;;;;5107617;28;20478;-72
2024/02/19 00:52:02;;;;;;;6.83;0.80;;;9.20;99.90;;;;;;5097054;28;20498;-72
2024/02/19 00:54:30;;;;;;;5.93;0.43;;;9.20;99.90;;;;;;5099138;28;20581;-71
2024/02/19 00:57:00;;;;;;;6.20;0.50;;;9.20;99.90;;;;;;5107633;28;20515;-72
2024/02/19 00:59:28;;;;;;;6.23;0.50;;;9.20;99.90;;;;;;5107572;28;20990;-72
2024/02/19 01:01:55;;;;;;;5.97;0.50;;;9.20;99.90;;;;;;5098117;28;20483;-71
2024/02/19 01:04:23;;;;;;;5.97;0.40;;;9.20;99.90;;;;;;5087530;28;20523;-71
2024/02/19 01:06:52;;;;;;;6.10;0.43;;;9.20;99.90;;;;;;5095878;28;20553;-71
2024/02/19 01:09:20;;;;;;;6.10;0.50;;;9.20;99.90;;;;;;5099802;28;20541;-71
2024/02/19 01:11:48;;;;;;;6.50;0.70;;;9.20;99.90;;;;;;5091133;28;20483;-71
2024/02/19 01:14:17;;;;;;;7.43;0.60;;;9.30;99.90;;;;;;5086802;28;20527;-71
2024/02/19 01:16:46;;;;;;;6.27;0.80;;;9.20;99.90;;;;;;5089243;28;21033;-71
2024/02/19 01:19:14;;;;;;;6.10;0.40;;;9.20;99.90;;;;;;5107305;28;20455;-71
2024/02/19 01:21:42;;;;;;;6.77;0.50;;;9.30;99.90;;;;;;5106899;28;20481;-71
2024/02/19 01:24:11;;;;;;;7.10;1.00;;;9.30;99.90;;;;;;5107100;28;21012;-71
2024/02/19 01:26:41;;;;;;;6.23;0.60;;;9.30;99.90;;;;;;5099799;28;20504;-71
2024/02/19 01:29:09;;;;;;;6.60;0.90;;;9.30;99.90;;;;;;5086809;28;20953;-71
2024/02/19 01:31:38;;;;;;;6.27;0.70;;;9.30;99.90;;;;;;5086860;28;20974;-71
2024/02/19 01:34:06;;;;;;;6.53;0.80;;;9.30;99.90;;;;;;5093940;28;20484;-71
2024/02/19 01:36:34;;;;;;;7.27;0.83;;;9.30;99.90;;;;;;5091054;28;21088;-71
2024/02/19 01:39:02;;;;;;;7.00;0.90;;;9.30;99.90;;;;;;5096119;28;20448;-71
2024/02/19 01:41:30;;;;;;;7.00;1.00;;;9.30;99.90;;;;;;5096334;28;20449;-71
2024/02/19 01:43:58;;;;;;;6.43;0.80;;;9.30;99.90;;;;;;5102176;28;20510;-71
2024/02/19 01:46:27;;;;;;;6.83;0.80;;;9.30;99.90;;;;;;5099152;28;20461;-71
2024/02/19 01:48:57;;;;;;;6.80;0.93;;;9.30;99.90;;;;;;5110619;28;20448;-71
2024/02/19 01:51:27;;;;;;;6.50;0.90;;;9.40;99.90;;;;;;5106272;28;20438;-71
2024/02/19 01:53:56;;;;;;;7.07;1.20;;;9.30;99.90;;;;;;5093172;28;21097;-71
2024/02/19 01:56:24;;;;;;;7.30;1.10;;;9.40;99.90;;;;;;5090935;28;20872;-71
2024/02/19 01:58:53;;;;;;;7.10;1.10;;;9.40;99.90;;;;;;5101823;28;20442;-72
2024/02/19 02:01:21;;;;;;;7.10;1.10;;;9.40;99.90;;;;;;5110661;28;20931;-73
2024/02/19 02:03:52;;;;;;;6.57;1.00;;;9.30;99.90;;;;;;5110895;28;20589;-72
2024/02/19 02:06:22;;;;;;;9.00;1.17;;;9.30;99.90;;;;;;5106868;28;20552;-72
2024/02/19 02:08:51;;;;;;;6.57;0.87;;;9.30;99.90;;;;;;5099709;28;20450;-71
2024/02/19 02:11:19;;;;;;;7.20;1.10;;;9.40;99.90;;;;;;5102611;28;20588;-72
2024/02/19 02:13:47;;;;;;;7.73;1.27;;;9.40;99.90;;;;;;5103376;28;20484;-73
2024/02/19 02:16:24;;;;;;;9.20;1.20;;;9.30;99.90;;;;;;5110037;28;20453;-72
2024/02/19 02:18:52;;;;;;;7.50;1.27;;;9.20;99.90;;;;;;5102838;28;20519;-72
2024/02/19 02:21:23;;;;;;;8.10;1.50;;;9.20;99.90;;;;;;5104264;28;20442;-71
2024/02/19 02:23:52;;;;;;;7.37;1.10;;;9.20;99.90;;;;;;5109180;28;20883;-72
2024/02/19 02:26:20;;;;;;;7.33;1.40;;;9.10;99.90;;;;;;5109849;28;20531;-71
2024/02/19 02:28:49;;;;;;;7.20;1.47;;;9.10;99.90;;;;;;5093936;28;20462;-71
2024/02/19 02:31:18;;;;;;;8.70;1.20;;;9.10;99.90;;;;;;5088204;28;20458;-72
2024/02/19 02:33:47;;;;;;;9.17;1.37;;;9.10;99.90;;;;;;5106177;28;20473;-72
2024/02/19 02:36:16;;;;;;;8.20;1.90;;;9.00;99.90;;;;;;5105580;28;20505;-72
2024/02/19 02:38:44;;;;;;;8.13;1.77;;;9.10;99.90;;;;;;5103804;28;20453;-71
2024/02/19 02:41:11;;;;;;;7.80;1.47;;;9.00;99.90;;;;;;5108144;28;21043;-72
2024/02/19 02:43:39;;;;;;;8.53;2.37;;;9.00;99.90;;;;;;5103139;28;20498;-72
2024/02/19 02:46:09;;;;;;;8.70;1.70;;;9.00;99.90;;;;;;5107877;28;20500;-72
2024/02/19 02:48:37;;;;;;;7.47;1.50;;;9.00;99.90;;;;;;5108787;28;20446;-72
2024/02/19 02:51:05;;;;;;;7.87;1.60;;;9.00;99.90;;;;;;5100784;28;20447;-71
2024/02/19 02:53:33;;;;;;;8.53;1.90;;;9.00;99.90;;;;;;5108154;28;20442;-71
2024/02/19 02:56:01;;;;;;;8.30;1.77;;;9.00;99.90;;;;;;5107031;28;20445;-71
2024/02/19 02:58:29;;;;;;;8.33;2.13;;;9.10;99.90;;;;;;5108068;28;20526;-71
2024/02/19 03:00:57;;;;;;;8.27;1.70;;;9.10;99.90;;;;;;5093618;28;20453;-71
2024/02/19 03:03:27;;;;;;;7.90;1.97;;;9.10;99.90;;;;;;5105123;28;20865;-72
2024/02/19 03:05:55;;;;;;;7.70;1.73;;;9.10;99.90;;;;;;5101504;28;20516;-72
2024/02/19 03:08:23;;;;;;;7.83;1.97;;;9.00;99.90;;;;;;5107260;28;20465;-72
2024/02/19 03:10:50;;;;;;;9.07;2.30;;;9.00;99.90;;;;;;5106256;28;20486;-72
2024/02/19 03:13:18;;;;;;;8.67;2.20;;;9.00;99.90;;;;;;5107565;28;20462;-71
2024/02/19 03:15:46;;;;;;;10.57;2.33;;;9.00;99.90;;;;;;5103346;28;20489;-72
2024/02/19 03:18:14;;;;;;;9.57;1.97;;;9.00;99.90;;;;;;5107007;28;20848;-72
2024/02/19 03:20:44;;;;;;;7.57;1.83;;;9.00;99.90;;;;;;5105400;28;20549;-72
2024/02/19 03:23:12;;;;;;;7.10;1.53;;;9.00;99.90;;;;;;5105861;28;20482;-72
2024/02/19 03:25:39;;;;;;;8.33;2.30;;;9.00;99.90;;;;;;5064453;28;1064536;-71
2024/02/19 03:28:07;;;;;;;8.57;2.70;;;9.00;99.90;;;;;;5089055;28;20225;-71
2024/02/19 03:30:35;;;;;;;9.73;2.43;;;9.10;99.90;;;;;;5102350;28;20477;-72
2024/02/19 03:33:03;;;;;;;7.60;1.50;;;9.10;99.90;;;;;;5100293;28;20468;-72
2024/02/19 03:35:31;;;;;;;8.10;2.43;;;9.10;99.90;;;;;;5103903;28;20499;-72
2024/02/19 03:38:00;;;;;;;8.20;2.10;;;9.10;99.90;;;;;;5094838;28;20481;-71
2024/02/19 03:40:28;;;;;;;10.60;2.13;;;9.10;99.90;;;;;;5104871;28;20555;-71
2024/02/19 03:42:58;;;;;;;8.20;2.43;;;9.10;99.90;;;;;;5108659;28;20852;-72
2024/02/19 03:45:26;;;;;;;8.73;2.30;;;9.10;99.90;;;;;;5100234;28;20469;-72
2024/02/19 03:47:54;;;;;;;8.50;2.70;;;9.10;99.90;;;;;;5108634;28;20533;-72
2024/02/19 03:50:23;;;;;;;9.00;2.80;;;9.10;99.90;;;;;;5106649;28;20513;-72
2024/02/19 03:52:51;;;;;;;11.40;3.23;;;9.00;99.90;;;;;;5107142;28;20521;-72
2024/02/19 03:55:20;;;;;;;9.83;2.90;;;9.10;99.90;;;;;;5107638;28;21011;-71
2024/02/19 03:57:48;;;;;;;10.30;3.47;;;9.10;99.90;;;;;;5107000;28;20446;-72
2024/02/19 04:00:16;;;;;;;9.50;2.80;;;9.10;99.90;;;;;;5096838;28;20487;-71
2024/02/19 04:02:44;;;;;;;9.20;3.23;;;9.10;99.90;;;;;;5090400;28;20489;-72
2024/02/19 04:05:12;;;;;;;10.70;2.87;;;9.10;99.90;;;;;;5102355;28;20856;-73
2024/02/19 04:07:40;;;;;;;9.70;2.63;;;9.00;99.90;;;;;;5107241;28;20472;-73
2024/02/19 04:10:08;;;;;;;8.80;3.13;;;9.00;99.90;;;;;;5102306;28;20469;-72
2024/02/19 04:12:38;;;;;;;9.00;2.90;;;9.00;99.90;;;;;;5107013;28;20445;-73
2024/02/19 04:15:07;;;;;;;8.70;2.90;;;9.10;99.90;;;;;;5101597;28;20558;-73
2024/02/19 04:17:34;;;;;;;8.33;2.23;;;9.10;99.90;;;;;;5105205;28;20485;-73
2024/02/19 04:20:04;;;;;;;9.07;3.07;;;9.10;99.90;;;;;;5100179;28;21184;-72
2024/02/19 04:22:32;;;;;;;10.13;2.13;;;9.10;99.90;;;;;;5107175;28;20855;-73
2024/02/19 04:25:00;;;;;;;8.90;2.03;;;9.10;99.90;;;;;;5105380;28;20573;-73
2024/02/19 04:27:29;;;;;;;11.03;2.73;;;9.10;99.90;;;;;;5103778;28;20451;-73
2024/02/19 04:29:58;;;;;;;9.23;2.87;;;9.10;99.90;;;;;;5106261;28;20912;-73
2024/02/19 04:32:26;;;;;;;8.10;1.90;;;9.10;99.90;;;;;;5092892;28;21089;-73
2024/02/19 04:34:55;;;;;;;9.40;3.00;;;9.10;99.90;;;;;;5101609;28;21153;-72
2024/02/19 04:37:23;;;;;;;9.63;2.30;;;9.10;99.90;;;;;;5106391;28;20470;-73
2024/02/19 04:39:51;;;;;;;9.20;2.63;;;9.20;99.90;;;;;;5091292;28;20470;-73
2024/02/19 04:42:19;;;;;;;9.50;2.70;;;9.10;99.90;;;;;;5086800;28;20492;-72
2024/02/19 04:44:48;;;;;;;8.97;2.30;;;9.10;99.90;;;;;;5100598;28;20911;-73
2024/02/19 04:47:17;;;;;;;9.57;2.80;;;9.10;99.90;;;;;;5107470;28;20468;-73
2024/02/19 04:49:45;;;;;;;9.90;2.90;;;9.00;99.90;;;;;;5107028;28;20474;-71
2024/02/19 04:52:13;;;;;;;8.60;2.30;;;9.00;99.90;;;;;;5107241;28;21012;-72
2024/02/19 04:54:41;;;;;;;8.97;2.80;;;9.00;99.90;;;;;;5099256;28;20538;-72
2024/02/19 04:57:09;;;;;;;12.60;3.57;;;9.00;99.90;;;;;;5106120;28;20842;-72
2024/02/19 04:59:38;;;;;;;8.73;2.90;;;9.00;99.90;;;;;;5102520;28;20518;-72
2024/02/19 05:02:06;;;;;;;9.33;3.13;;;9.00;99.90;;;;;;5106370;28;20448;-72
2024/02/19 05:04:36;;;;;;;9.33;3.30;;;9.00;99.90;;;;;;5107010;28;20489;-72
2024/02/19 05:07:04;;;;;;;11.23;3.70;;;8.90;99.90;;;;;;5090064;28;20557;-72
2024/02/19 05:09:32;;;;;;;9.30;3.00;;;8.90;99.90;;;;;;5105906;28;20554;-72
2024/02/19 05:12:00;;;;;;;13.13;3.50;;;8.90;99.90;;;;;;5098524;28;20442;-72
2024/02/19 05:14:28;;;;;;;13.40;3.47;;;9.00;99.90;;;;;;5087106;28;20467;-72
2024/02/19 05:16:57;;;;;;;10.60;3.47;;;9.00;99.90;;;;;;5099218;28;20449;-71
2024/02/19 05:19:24;;;;;;;12.00;3.90;;;9.00;99.90;;;;;;5106930;28;20511;-71
2024/02/19 05:21:54;;;;;;;9.73;3.50;;;9.00;99.90;;;;;;5106640;28;20481;-71
2024/02/19 05:24:22;;;;;;;9.17;3.43;;;9.00;99.90;;;;;;5106578;28;20523;-71
2024/02/19 05:26:50;;;;;;;11.60;3.63;;;9.00;99.90;;;;;;5107030;28;20469;-72
2024/02/19 05:29:19;;;;;;;10.83;3.00;;;9.00;99.90;;;;;;5107612;28;20463;-70
2024/02/19 05:31:47;;;;;;;9.40;3.67;;;9.00;99.90;;;;;;5106257;28;20835;-72
2024/02/19 05:34:15;;;;;;;11.67;3.93;;;9.00;99.90;;;;;;5106855;28;20831;-71
2024/02/19 05:36:43;;;;;;;9.67;3.70;;;9.00;99.90;;;;;;5092125;28;20811;-74
2024/02/19 05:39:12;;;;;;;9.47;2.83;;;9.00;99.90;;;;;;5087300;28;20610;-70
2024/02/19 05:41:41;;;;;;;12.40;3.07;;;9.00;99.90;;;;;;5086315;28;20474;-70
2024/02/19 05:44:09;;;;;;;9.70;3.20;;;9.00;99.90;;;;;;5086751;28;20489;-70
2024/02/19 05:46:37;;;;;;;11.40;3.80;;;8.90;99.90;;;;;;5086938;28;20450;-70
2024/02/19 05:49:05;;;;;;;10.17;2.97;;;9.00;99.90;;;;;;5100410;28;21169;-70
2024/02/19 05:51:35;;;;;;;10.27;3.70;;;9.00;99.90;;;;;;5106438;28;20445;-74
2024/02/19 05:54:02;;;;;;;10.30;2.70;;;9.00;99.90;;;;;;5107119;28;20467;-72
2024/02/19 05:56:32;;;;;;;15.03;3.20;;;9.00;99.90;;;;;;5106670;28;20450;-71
2024/02/19 05:59:00;;;;;;;9.50;2.60;;;9.10;99.90;;;;;;5106933;28;20455;-71
2024/02/19 06:01:28;;;;;;;11.53;2.97;;;9.10;99.90;;;;;;5106709;28;20441;-70
2024/02/19 06:03:57;;;;;;;8.47;2.93;;;9.00;99.90;;;;;;5106005;28;20471;-70
2024/02/19 06:06:25;;;;;;;10.70;2.80;;;9.10;99.90;;;;;;5104686;28;20463;-71
2024/02/19 06:08:52;;;;;;;8.57;2.57;;;9.00;99.90;;;;;;5104512;28;20488;-74
2024/02/19 06:11:21;;;;;;;7.80;2.20;;;9.10;99.90;;;;;;5105256;28;20461;-74
2024/02/19 06:13:52;;;;;;;8.80;2.83;;;9.10;99.90;;;;;;5106055;28;20479;-71
2024/02/19 06:16:20;;;;;;;10.70;3.50;;;9.00;99.90;;;;;;5105947;28;20499;-71
2024/02/19 06:18:48;;;;;;;9.60;3.00;;;9.00;99.90;;;;;;5105632;28;21165;-71
2024/02/19 06:21:16;;;;;;;9.37;2.83;;;9.00;99.90;;;;;;5107311;28;20469;-70
2024/02/19 06:23:44;;;;;;;10.13;2.77;;;9.00;99.90;;;;;;5108641;28;20462;-74
2024/02/19 06:26:12;;;;;;;9.97;2.40;;;9.00;99.90;;;;;;5109464;28;20483;-70
2024/02/19 06:28:40;;;;;;;8.80;2.43;;;9.10;99.90;;;;;;5109475;28;20453;-71
2024/02/19 06:31:09;;;;;;;11.73;3.07;;;9.10;99.90;;;;;;5109135;28;21054;-71
2024/02/19 06:33:37;;;;;;;9.60;3.30;;;9.10;99.90;;;;;;5110253;28;20452;-71
2024/02/19 06:36:07;;;;;;;12.33;2.43;;;9.10;99.90;;;;;;5109086;28;20920;-71
2024/02/19 06:38:35;;;;;;;7.93;1.90;;;9.10;99.90;;;;;;5089926;28;20444;-72
2024/02/19 06:41:03;;;;;;;8.87;2.60;;;9.10;99.90;;;;;;5097460;28;20447;-72
2024/02/19 06:43:31;;;;;;;9.80;2.83;;;9.10;99.90;;;;;;5092022;28;20992;-72
2024/02/19 06:45:59;;;;;;;7.90;2.30;;;9.00;99.90;;;;;;5109792;28;20482;-72
2024/02/19 06:48:28;;;;;;;10.60;2.43;;;9.10;99.90;;;;;;5097547;28;20448;-73
2024/02/19 06:50:56;;;;;;;11.03;2.57;;;9.10;99.90;;;;;;5089102;28;20970;-72
2024/02/19 06:53:24;;;;;;;9.73;3.00;;;9.10;99.90;;;;;;5088589;28;20752;-71
2024/02/19 06:55:52;;;;;;;8.70;2.60;;;9.00;99.90;;;;;;5092296;28;20522;-71
2024/02/19 06:58:20;;;;;;;8.70;2.40;;;9.10;99.90;;;;;;5109752;28;20451;-70
2024/02/19 07:00:49;;;;;;;11.27;2.60;;;9.00;99.90;;;;;;5109254;28;20457;-74
2024/02/19 07:03:17;;;;;;;9.10;2.47;;;9.00;99.90;;;;;;5109441;28;20450;-71
2024/02/19 07:05:47;;;;;;;7.93;2.50;;;9.00;99.90;;;;;;5108890;28;20505;-71
2024/02/19 07:08:15;;;;;;;8.93;2.27;;;9.10;99.90;;;;;;5098964;28;20450;-71
2024/02/19 07:10:43;;;;;;;9.63;2.30;;;9.10;99.90;;;;;;5088940;28;20854;-70
2024/02/19 07:13:11;;;;;;;10.83;2.77;;;9.10;99.90;;;;;;5088790;28;20471;-71
2024/02/19 07:15:39;;;;;;;8.10;2.13;;;9.10;99.90;;;;;;5094810;28;20467;-70
2024/02/19 07:18:07;;;;;;;9.70;2.17;;;9.10;99.90;;;;;;5088711;28;20458;-71
2024/02/19 07:20:38;;;;;;;9.37;2.20;;;9.10;99.90;;;;;;5089255;28;20434;-71
2024/02/19 07:23:07;;;;;;;8.33;2.20;;;9.10;99.90;;;;;;5088530;28;20454;-70
2024/02/19 07:25:35;;;;;;;8.80;1.53;;;9.10;99.90;;;;;;5088806;28;20500;-70
2024/02/19 07:28:03;;;;;;;10.40;1.60;;;9.20;99.90;;;;;;5088666;28;20451;-70
2024/02/19 07:30:31;;;;;;;8.03;1.70;;;9.20;99.90;;;;;;5100198;28;20477;-71
2024/02/19 07:32:59;;;;;;;8.80;2.03;;;9.20;99.90;;;;;;5108692;28;20625;-71
2024/02/19 07:35:27;;;;;;;10.07;1.50;;;9.10;99.90;;;;;;5096830;28;20459;-71
2024/02/19 07:37:55;;;;;;;9.37;2.10;;;9.10;99.90;;;;;;5088391;28;20463;-70
2024/02/19 07:40:24;;;;;;;10.43;2.23;;;9.10;99.90;;;;;;5088665;28;20462;-71
2024/02/19 07:42:52;;;;;;;10.50;1.63;;;9.10;99.90;;;;;;5088314;28;20835;-70
2024/02/19 07:45:21;;;;;;;8.07;1.57;;;9.20;99.90;;;;;;5089663;28;20539;-70
2024/02/19 07:47:48;;;;;;;8.70;2.00;;;9.20;99.90;;;;;;5102903;28;20928;-70
2024/02/19 07:50:16;;;;;;;8.33;1.43;;;9.20;99.90;;;;;;5108323;28;20899;-71
2024/02/19 07:52:45;;;;;;;7.40;1.40;;;9.30;99.90;;;;;;5108502;28;20534;-70
2024/02/19 07:55:15;;;;;;;8.17;1.33;;;9.30;99.90;;;;;;5108494;28;20473;-71
2024/02/19 07:57:44;;;;;;;6.93;1.23;;;9.30;99.90;;;;;;5108311;28;20495;-70
2024/02/19 08:00:13;;;;;;;7.50;1.50;;;9.30;99.90;;;;;;5108436;28;20449;-71
2024/02/19 08:02:41;;;;;;;9.63;1.60;;;9.30;99.90;;;;;;5107604;28;20459;-71
2024/02/19 08:05:09;;;;;;;8.07;1.30;;;9.30;99.90;;;;;;5108720;28;20527;-71
2024/02/19 08:07:37;;;;;;;7.00;1.30;;;9.30;99.90;;;;;;5103696;28;20441;-71
2024/02/19 08:10:06;;;;;;;8.20;1.57;;;9.40;99.90;;;;;;5087951;28;20561;-70
2024/02/19 08:12:35;;;;;;;7.27;1.23;;;9.40;99.90;;;;;;5088087;28;20454;-71
2024/02/19 08:15:11;;;;;;;9.83;1.93;;;9.50;99.90;;;;;;5089409;28;20472;-71
2024/02/19 08:17:39;;;;;;;8.80;1.40;;;9.50;99.90;;;;;;5087653;28;21047;-70
2024/02/19 08:20:09;;;;;;;6.73;0.93;;;9.50;99.90;;;;;;5087610;28;20449;-69
2024/02/19 08:22:37;;;;;;;8.43;1.20;;;9.40;99.90;;;;;;5087565;28;20478;-72
2024/02/19 08:25:05;;;;;;;7.97;1.20;;;9.50;99.90;;;;;;5095306;28;20981;-71
2024/02/19 08:27:33;;;;;;;6.53;1.30;;;9.50;99.90;;;;;;5099592;28;20450;-71
2024/02/19 08:30:02;;;;;;;9.60;1.03;;;9.50;99.90;;;;;;5099915;28;20447;-70
2024/02/19 08:32:31;;;;;;;9.37;1.37;;;9.50;99.90;;;;;;5086802;28;20510;-70
2024/02/19 08:34:59;;;;;;;8.13;1.20;;;9.60;99.90;;;;;;5088923;28;20564;-70
2024/02/19 08:37:28;;;;;;;6.70;1.00;;;9.60;99.90;;;;;;5108603;28;20469;-69
2024/02/19 08:39:56;;;;;;;9.13;0.90;;;9.50;99.90;;;;;;5095121;28;20441;-71
2024/02/19 08:42:23;;;;;;;8.43;1.23;;;9.60;99.90;;;;;;5091546;28;20447;-71
2024/02/19 08:44:51;;;;;;;6.20;1.00;;;9.60;99.90;;;;;;5088198;28;20817;-72
2024/02/19 08:47:19;;;;;;;8.53;1.40;;;9.60;99.90;;;;;;5088019;28;20542;-72
2024/02/19 08:49:48;;;;;;;8.30;1.30;;;9.60;99.90;;;;;;5092749;28;21096;-71
2024/02/19 08:52:16;;;;;;;7.27;1.20;;;9.60;99.90;;;;;;5089932;28;20888;-71
2024/02/19 08:54:44;;;;;;;7.23;1.30;;;9.60;99.90;;;;;;5088012;28;20469;-71
2024/02/19 08:57:12;;;;;;;6.83;0.83;;;9.60;99.90;;;;;;5088130;28;20451;-71
2024/02/19 08:59:44;;;;;;;6.67;1.10;;;9.60;99.90;;;;;;5087717;28;21031;-71
2024/02/19 09:02:12;;;;;;;10.10;1.23;;;9.60;99.90;;;;;;5087608;28;20452;-71
2024/02/19 09:04:41;;;;;;;8.23;1.50;;;9.60;99.90;;;;;;5087870;28;20541;-71
2024/02/19 09:07:12;;;;;;;9.70;2.03;;;9.60;99.90;;;;;;5097518;28;20589;-72
2024/02/19 09:09:43;;;;;;;8.70;1.43;;;9.60;99.90;;;;;;5102901;28;20823;-71
2024/02/19 09:12:12;;;;;;;7.70;1.23;;;9.60;99.90;;;;;;5087350;28;20483;-71
2024/02/19 09:14:40;;;;;;;7.20;1.07;;;9.60;99.90;;;;;;5087471;28;20471;-71
2024/02/19 09:17:08;;;;;;;9.47;1.30;;;9.60;99.90;;;;;;5087533;28;20450;-71
2024/02/19 09:19:35;;;;;;;7.13;1.17;;;9.70;99.90;;;;;;5089597;28;20499;-71
2024/02/19 09:22:03;;;;;;;8.10;1.27;;;9.70;99.90;;;;;;5089757;28;20827;-71
2024/02/19 09:24:34;;;;;;;6.83;1.20;;;9.80;99.90;;;;;;5087680;28;20498;-71
2024/02/19 09:27:02;;;;;;;7.43;0.90;;;9.90;99.90;;;;;;5087667;28;20547;-70
2024/02/19 09:29:31;;;;;;;7.20;1.70;;;9.90;99.90;;;;;;5091107;28;20455;-71
2024/02/19 09:32:02;;;;;;;9.73;2.00;;;10.00;99.90;;;;;;5107852;28;20451;-71
2024/02/19 09:34:30;;;;;;;7.87;1.20;;;10.00;99.90;;;;;;5104286;28;21038;-72
2024/02/19 09:36:59;;;;;;;7.23;1.47;;;10.20;99.90;;;;;;5095687;28;20455;-72
2024/02/19 09:39:31;;;;;;;7.43;1.13;;;10.20;99.90;;;;;;5087827;28;20491;-71
2024/02/19 09:42:02;;;;;;;7.30;1.20;;;10.10;99.90;;;;;;5087434;28;20863;-71
2024/02/19 09:44:30;;;;;;;8.57;1.40;;;10.10;99.90;;;;;;5099164;28;20473;-71
2024/02/19 09:47:03;;;;;;;7.70;1.40;;;10.20;99.90;;;;;;5107378;28;20956;-72
2024/02/19 09:49:35;;;;;;;8.67;1.33;;;10.20;99.90;;;;;;5104338;28;20446;-71
2024/02/19 09:52:05;;;;;;;7.67;1.07;;;10.20;99.90;;;;;;5103596;28;20455;-71
2024/02/19 09:54:33;;;;;;;6.60;1.03;;;10.30;99.90;;;;;;5108055;28;20471;-71
2024/02/19 09:57:02;;;;;;;8.10;1.40;;;10.40;99.90;;;;;;5111477;28;20826;-69
2024/02/19 09:59:31;;;;;;;6.57;1.13;;;10.50;99.90;;;;;;5111594;28;20446;-72
2024/02/19 10:01:59;;;;;;;8.53;1.10;;;10.50;99.90;;;;;;5111178;28;20452;-72
2024/02/19 10:04:27;;;;;;;8.93;1.20;;;10.50;99.90;;;;;;5103070;28;20464;-71
2024/02/19 10:07:01;;;;;;;9.40;1.43;;;10.60;99.90;;;;;;5110915;28;20486;-71
2024/02/19 10:09:29;;;;;;;7.80;1.13;;;10.60;99.90;;;;;;5111429;28;20443;-72
2024/02/19 10:11:57;;;;;;;9.00;1.70;;;10.60;99.90;;;;;;5111110;28;21164;-72
2024/02/19 10:14:28;;;;;;;7.40;1.20;;;10.60;99.90;;;;;;5111149;28;20569;-72
2024/02/19 10:16:56;;;;;;;8.53;2.90;;;10.60;99.90;;;;;;5104854;28;20453;-71
2024/02/19 10:19:25;;;;;;;10.87;1.30;;;10.60;99.90;;;;;;5090930;28;20452;-71
2024/02/19 10:21:54;;;;;;;6.90;1.00;;;10.50;99.90;;;;;;5090716;28;20459;-72
2024/02/19 10:24:23;;;;;;;6.93;1.20;;;10.30;99.90;;;;;;5106594;28;21105;-72
2024/02/19 10:26:51;;;;;;;8.43;1.33;;;10.20;99.90;;;;;;5110487;28;20539;-71
2024/02/19 10:29:21;;;;;;;8.30;1.27;;;10.10;99.90;;;;;;5109353;28;20453;-71
2024/02/19 10:31:50;;;;;;;7.67;1.20;;;10.10;99.90;;;;;;5092339;28;21375;-71
2024/02/19 10:34:18;;;;;;;9.73;1.60;;;10.00;99.90;;;;;;5110793;28;20533;-71
2024/02/19 10:36:46;;;;;;;8.20;1.30;;;10.10;99.90;;;;;;5110670;28;20449;-71
2024/02/19 10:39:14;;;;;;;7.80;1.27;;;10.00;99.90;;;;;;5109418;28;20451;-71
2024/02/19 10:41:42;;;;;;;8.33;1.43;;;9.90;99.90;;;;;;5090188;28;20559;-71
2024/02/19 10:44:11;;;;;;;9.67;1.10;;;9.90;99.90;;;;;;5092246;28;20473;-71
2024/02/19 10:46:40;;;;;;;8.10;1.50;;;9.90;99.90;;;;;;5089968;28;20486;-72
2024/02/19 10:49:09;;;;;;;9.00;1.40;;;9.80;99.90;;;;;;5090242;28;21049;-71
2024/02/19 10:51:39;;;;;;;10.67;1.50;;;9.90;99.90;;;;;;5102351;28;20449;-71
2024/02/19 10:54:07;;;;;;;9.13;1.37;;;9.90;99.90;;;;;;5110590;28;20929;-71
2024/02/19 10:56:37;;;;;;;8.70;1.40;;;9.90;99.90;;;;;;5110035;28;20482;-71
2024/02/19 10:59:08;;;;;;;13.60;1.80;;;9.90;99.90;;;;;;5110649;28;20531;-72
2024/02/19 11:01:43;;;;;;;7.53;1.40;;;10.00;99.90;;;;;;5110216;28;20451;-71
2024/02/19 11:04:19;;;;;;;10.10;1.13;;;9.90;99.90;;;;;;5110258;28;20845;-72
2024/02/19 11:06:48;;;;;;;7.43;1.60;;;10.00;99.90;;;;;;5110470;28;20439;-72
2024/02/19 11:09:17;;;;;;;12.37;1.80;;;10.10;99.90;;;;;;5109103;28;20546;-72
2024/02/19 11:11:58;;;;;;;8.20;1.50;;;10.30;99.90;;;;;;5089879;28;20450;-71
2024/02/19 11:14:28;;;;;;;7.37;1.23;;;10.40;99.90;;;;;;5108744;28;20555;-70
2024/02/19 11:16:57;;;;;;;11.57;1.67;;;10.50;99.90;;;;;;5110022;28;20446;-70
2024/02/19 11:19:29;;;;;;;8.87;1.00;;;10.60;99.90;;;;;;5110139;28;20448;-70
2024/02/19 11:22:06;;;;;;;8.80;1.20;;;10.60;99.90;;;;;;5110037;28;20452;-70
2024/02/19 11:24:34;;;;;;;8.03;1.50;;;10.50;99.90;;;;;;5110223;28;20521;-71
2024/02/19 11:27:04;;;;;;;8.33;1.23;;;10.70;99.90;;;;;;5109892;28;20484;-71
2024/02/19 11:29:32;;;;;;;7.83;1.13;;;10.70;99.90;;;;;;5107363;28;20445;-70
2024/02/19 11:32:17;;;;;;;9.63;1.50;;;10.60;99.90;;;;;;5089711;28;20454;-70
2024/02/19 11:34:49;;;;;;;7.17;1.40;;;10.50;99.90;;;;;;5089609;28;20476;-70
2024/02/19 11:37:19;;;;;;;8.20;1.30;;;10.40;99.90;;;;;;5098077;28;20445;-69
2024/02/19 11:39:48;;;;;;;7.97;1.03;;;10.30;99.90;;;;;;5089284;28;20453;-71
2024/02/19 11:42:17;;;;;;;9.07;1.20;;;10.40;99.90;;;;;;5099951;28;20448;-71
2024/02/19 11:44:46;;;;;;;8.37;1.53;;;10.40;99.90;;;;;;5109595;28;20495;-71
2024/02/19 11:47:15;;;;;;;8.87;1.40;;;10.50;99.90;;;;;;5109380;28;20476;-71
2024/02/19 11:49:45;;;;;;;6.70;1.17;;;10.70;99.90;;;;;;5109523;28;20457;-70
2024/02/19 11:52:15;;;;;;;8.83;1.23;;;10.80;99.90;;;;;;5109436;28;20934;-71
2024/02/19 11:54:43;;;;;;;9.07;1.10;;;10.60;99.90;;;;;;5109297;28;20555;-71
2024/02/19 11:57:12;;;;;;;7.93;1.10;;;10.50;99.90;;;;;;5100846;28;20997;-71
2024/02/19 11:59:40;;;;;;;10.53;1.13;;;10.60;99.90;;;;;;5101877;28;20941;-70
2024/02/19 12:02:08;;;;;;;9.97;1.17;;;10.60;99.90;;;;;;5108881;28;20440;-71
2024/02/19 12:04:38;;;;;;;6.77;0.80;;;10.80;99.90;;;;;;5100906;28;20882;-71
2024/02/19 12:07:09;;;;;;;8.73;1.53;;;11.00;99.90;;;;;;5101246;28;20454;-71
2024/02/19 12:09:40;;;;;;;8.33;1.00;;;11.20;99.90;;;;;;5089198;28;20445;-71
2024/02/19 12:12:09;;;;;;;9.47;1.13;;;11.30;99.90;;;;;;5088685;28;21145;-70
2024/02/19 12:14:37;;;;;;;7.07;1.30;;;11.30;99.90;;;;;;5088785;28;20474;-71
2024/02/19 12:17:05;;;;;;;8.63;1.10;;;11.10;99.90;;;;;;5094290;28;20465;-72
2024/02/19 12:19:35;;;;;;;7.20;1.30;;;11.00;99.90;;;;;;5088925;28;20959;-71
2024/02/19 12:22:03;;;;;;;7.50;1.10;;;11.00;99.90;;;;;;5090477;28;20515;-71
2024/02/19 12:24:31;;;;;;;8.30;1.10;;;11.20;99.90;;;;;;5108554;28;20900;-71
2024/02/19 12:27:01;;;;;;;7.80;0.90;;;11.30;99.90;;;;;;5100616;28;20453;-72
2024/02/19 12:29:29;;;;;;;9.53;1.00;;;11.30;99.90;;;;;;5089974;28;20545;-72
2024/02/19 12:31:57;;;;;;;7.50;1.30;;;11.30;99.90;;;;;;5087610;28;20531;-72
2024/02/19 12:34:25;;;;;;;8.80;1.13;;;11.30;99.90;;;;;;5098269;28;21028;-73
2024/02/19 12:36:53;;;;;;;7.43;1.10;;;11.20;99.90;;;;;;5108567;28;20457;-72
2024/02/19 12:39:23;;;;;;;8.80;1.27;;;11.20;99.90;;;;;;5108853;28;20440;-72
2024/02/19 12:41:51;;;;;;;7.80;1.03;;;11.10;99.90;;;;;;5108756;28;20577;-73
2024/02/19 12:44:20;;;;;;;8.10;1.40;;;11.10;99.90;;;;;;5091035;28;20495;-72
2024/02/19 12:46:49;;;;;;;9.10;1.00;;;11.20;99.90;;;;;;5088046;28;20816;-73
2024/02/19 12:49:18;;;;;;;8.73;1.00;;;11.60;99.90;;;;;;5105747;28;21069;-71
2024/02/19 12:51:48;;;;;;;7.00;0.80;;;11.90;99.90;;;;;;5105726;28;20518;-72
2024/02/19 12:54:17;;;;;;;6.87;0.90;;;12.10;99.90;;;;;;5108930;28;20539;-73
2024/02/19 12:56:45;;;;;;;8.10;1.07;;;12.20;99.90;;;;;;5098703;28;20538;-73
2024/02/19 12:59:13;;;;;;;8.40;0.93;;;12.40;99.90;;;;;;5100958;28;20478;-72